createdAt,value
2023-01-21T00:02:27.419Z,7.12
2023-01-21T00:07:28.207Z,6.97
2023-01-21T00:12:29.397Z,7.95
2023-01-21T00:17:34.531Z,8.23
2023-01-21T00:22:35.458Z,8.68
2023-01-21T00:27:36.803Z,12.77
2023-01-21T00:32:37.587Z,16.50
2023-01-21T00:37:38.389Z,16.58
2023-01-21T00:42:39.141Z,19.20
2023-01-21T00:47:39.902Z,18.90
2023-01-21T00:52:40.722Z,19.25
2023-01-21T00:57:41.561Z,18.70
2023-01-21T01:02:42.473Z,18.95
2023-01-21T01:07:45.268Z,17.35
2023-01-21T01:12:45.994Z,17.62
2023-01-21T01:17:46.752Z,17.15
2023-01-21T01:22:47.663Z,16.67
2023-01-21T01:27:48.695Z,17.20
2023-01-21T01:32:49.444Z,18.48
2023-01-21T01:37:50.318Z,16.50
2023-01-21T01:42:51.045Z,14.85
2023-01-21T01:47:59.630Z,15.60
2023-01-21T01:53:01.315Z,17.20
2023-01-21T01:58:05.950Z,14.38
2023-01-21T02:03:25.491Z,15.80
2023-01-21T02:08:27.421Z,18.98
2023-01-21T02:13:30.708Z,15.73
2023-01-21T02:18:46.146Z,17.30
2023-01-21T02:24:27.085Z,17.25
2023-01-21T02:29:57.308Z,20.17
2023-01-21T02:35:08.306Z,19.37
2023-01-21T02:40:52.531Z,17.73
2023-01-21T02:46:02.535Z,19.77
2023-01-21T02:51:04.423Z,20.20
2023-01-21T02:56:08.845Z,21.45
2023-01-21T03:01:35.690Z,25.33
2023-01-21T03:09:43.971Z,22.70
2023-01-21T03:17:36.167Z,34.22
2023-01-21T03:22:38.775Z,38.08
2023-01-21T03:27:43.847Z,36.33
2023-01-21T03:32:49.323Z,34.58
2023-01-21T03:44:38.630Z,28.55
2023-01-21T03:50:45.262Z,25.62
2023-01-21T03:55:49.228Z,30.73
2023-01-21T04:00:50.164Z,27.98
2023-01-21T04:05:50.993Z,30.98
2023-01-21T04:10:51.730Z,34.17
2023-01-21T04:15:52.467Z,26.33
2023-01-21T04:20:53.237Z,27.70
2023-01-21T04:25:54.012Z,28.85
2023-01-21T04:30:54.901Z,22.27
2023-01-21T04:36:00.172Z,23.00
2023-01-21T04:41:01.242Z,17.83
2023-01-21T04:46:02.089Z,16.33
2023-01-21T04:51:03.038Z,13.80
2023-01-21T04:56:04.313Z,12.65
2023-01-21T05:01:05.468Z,13.77
2023-01-21T05:06:06.700Z,13.32
2023-01-21T05:11:08.798Z,21.92
2023-01-21T05:16:10.078Z,16.75
2023-01-21T05:21:11.186Z,19.35
2023-01-21T05:26:11.915Z,19.87
2023-01-21T05:31:13.284Z,19.58
2023-01-21T05:36:14.088Z,26.45
2023-01-21T05:41:14.953Z,24.65
2023-01-21T05:46:15.708Z,27.98
2023-01-21T05:51:16.701Z,23.50
2023-01-21T05:56:17.506Z,28.95
2023-01-21T06:01:18.343Z,27.37
2023-01-21T06:06:21.194Z,26.67
2023-01-21T06:11:22.386Z,25.10
2023-01-21T06:16:23.216Z,25.45
2023-01-21T06:21:24.103Z,19.77
2023-01-21T06:26:27.064Z,25.35
2023-01-21T06:31:28.427Z,25.33
2023-01-21T06:36:29.217Z,24.67
2023-01-21T06:41:30.155Z,24.20
2023-01-21T06:46:31.313Z,26.10
2023-01-21T06:51:32.112Z,27.33
2023-01-21T06:56:32.850Z,29.75
2023-01-21T07:01:34.008Z,26.12
2023-01-21T07:06:35.025Z,26.80
2023-01-21T07:11:35.873Z,29.90
2023-01-21T07:16:36.998Z,30.17
2023-01-21T07:21:40.544Z,32.35
2023-01-21T07:26:42.438Z,43.72
2023-01-21T07:31:43.454Z,34.83
2023-01-21T07:36:44.264Z,32.50
2023-01-21T07:41:45.666Z,35.45
2023-01-21T07:46:46.458Z,38.17
2023-01-21T07:51:47.627Z,31.12
2023-01-21T07:56:48.370Z,32.42
2023-01-21T08:01:49.445Z,33.72
2023-01-21T08:06:56.023Z,29.98
2023-01-21T08:11:56.887Z,30.25
2023-01-21T08:16:58.020Z,33.20
2023-01-21T08:21:58.767Z,33.08
2023-01-21T08:27:00.251Z,30.90
2023-01-21T08:32:01.299Z,30.08
2023-01-21T08:37:02.073Z,31.62
2023-01-21T08:42:02.926Z,29.23
2023-01-21T08:47:03.749Z,30.30
2023-01-21T08:52:04.472Z,34.75
2023-01-21T08:57:05.234Z,33.55
2023-01-21T09:02:07.736Z,59.67
2023-01-21T09:07:08.600Z,33.85
2023-01-21T09:12:09.415Z,38.72
2023-01-21T09:17:10.256Z,38.22
2023-01-21T09:22:11.357Z,35.95
2023-01-21T09:27:12.161Z,70.90
2023-01-21T09:32:13.081Z,31.15
2023-01-21T09:37:13.859Z,26.90
2023-01-21T09:42:21.179Z,23.77
2023-01-21T09:47:36.784Z,26.42
2023-01-21T09:52:43.749Z,36.75
2023-01-21T09:58:22.639Z,32.40
2023-01-21T10:03:32.248Z,27.83
2023-01-21T10:09:01.108Z,24.40
2023-01-21T10:17:43.129Z,28.62
2023-01-21T10:22:52.365Z,24.75
2023-01-21T10:27:56.876Z,24.92
2023-01-21T10:32:58.334Z,25.83
2023-01-21T10:38:13.536Z,27.95
2023-01-21T10:43:29.653Z,30.05
2023-01-21T10:48:44.323Z,27.42
2023-01-21T10:53:59.852Z,31.73
2023-01-21T10:59:16.950Z,22.98
2023-01-21T11:04:20.884Z,26.23
2023-01-21T11:09:24.872Z,22.73
2023-01-21T11:14:26.628Z,24.33
2023-01-21T11:19:30.223Z,26.27
2023-01-21T11:24:42.778Z,17.35
2023-01-21T11:29:43.732Z,23.25
2023-01-21T11:34:50.594Z,20.25
2023-01-21T11:40:21.168Z,19.25
2023-01-21T11:45:28.863Z,25.10
2023-01-21T11:50:37.060Z,21.45
2023-01-21T11:55:40.829Z,20.02
2023-01-21T12:00:45.563Z,19.85
2023-01-21T12:05:52.227Z,22.23
2023-01-21T12:10:55.736Z,28.05
2023-01-21T12:16:53.983Z,21.65
2023-01-21T12:26:33.518Z,19.25
2023-01-21T12:31:44.574Z,21.30
2023-01-21T12:36:53.394Z,19.15
2023-01-21T12:42:12.132Z,19.17
2023-01-21T12:47:22.674Z,21.05
2023-01-21T12:52:47.634Z,21.67
2023-01-21T12:58:04.466Z,22.25
2023-01-21T13:03:27.105Z,25.27
2023-01-21T13:08:54.544Z,24.60
2023-01-21T13:14:24.482Z,19.98
2023-01-21T13:19:25.544Z,23.12
2023-01-21T13:25:50.470Z,23.70
2023-01-21T13:32:30.827Z,22.40
2023-01-21T13:37:59.878Z,25.35
2023-01-21T13:43:29.247Z,22.90
2023-01-21T13:50:16.734Z,20.65
2023-01-21T13:55:37.110Z,25.55
2023-01-21T14:00:52.267Z,26.62
2023-01-21T14:09:09.046Z,25.65
2023-01-21T14:15:33.688Z,28.50
2023-01-21T14:20:52.762Z,24.87
2023-01-21T14:28:04.385Z,27.27
2023-01-21T14:33:26.959Z,25.27
2023-01-21T14:40:34.948Z,26.00
2023-01-21T14:45:56.465Z,25.48
2023-01-21T14:51:12.379Z,25.95
2023-01-21T14:56:25.392Z,26.90
2023-01-21T15:01:49.208Z,21.17
2023-01-21T15:06:53.666Z,24.15
2023-01-21T15:12:14.852Z,21.25
2023-01-21T15:18:29.083Z,18.25
2023-01-21T15:23:39.185Z,21.80
2023-01-21T15:28:57.328Z,18.37
2023-01-21T15:34:01.177Z,13.02
2023-01-21T15:39:12.022Z,11.77
2023-01-21T15:44:29.676Z,17.27
2023-01-21T15:49:49.337Z,15.20
2023-01-21T16:01:39.422Z,15.88
2023-01-21T16:07:01.207Z,19.85
2023-01-21T16:12:35.949Z,18.80
2023-01-21T16:18:00.781Z,18.12
2023-01-21T16:23:06.594Z,23.75
2023-01-21T16:28:07.321Z,23.92
2023-01-21T16:33:13.326Z,18.55
2023-01-21T16:38:16.735Z,16.02
2023-01-21T16:43:27.268Z,22.02
2023-01-21T16:48:31.052Z,18.92
2023-01-21T16:53:31.917Z,19.15
2023-01-21T16:58:34.007Z,16.55
2023-01-21T17:03:35.600Z,13.75
2023-01-21T17:08:37.673Z,15.27
2023-01-21T17:13:42.315Z,15.70
2023-01-21T17:18:51.966Z,15.45
2023-01-21T17:23:56.315Z,19.60
2023-01-21T17:29:07.495Z,21.55
2023-01-21T17:34:21.120Z,17.55
2023-01-21T17:40:27.346Z,23.55
2023-01-21T17:45:35.767Z,22.15
2023-01-21T17:50:36.580Z,17.92
2023-01-21T17:55:39.613Z,19.33
2023-01-21T18:00:43.156Z,18.58
2023-01-21T18:05:43.917Z,25.92
2023-01-21T18:10:45.575Z,24.48
2023-01-21T18:15:53.417Z,19.15
2023-01-21T18:20:54.837Z,21.70
2023-01-21T18:25:56.502Z,21.25
2023-01-21T18:30:58.719Z,22.65
2023-01-21T18:35:59.794Z,22.83
2023-01-21T18:41:00.876Z,27.50
2023-01-21T18:46:01.736Z,22.77
2023-01-21T18:51:02.736Z,25.12
2023-01-21T18:56:06.970Z,20.17
2023-01-21T19:01:21.984Z,24.50
2023-01-21T19:06:25.013Z,22.67
2023-01-21T19:11:25.828Z,30.42
2023-01-21T19:16:26.743Z,21.77
2023-01-21T19:21:27.860Z,22.87
2023-01-21T19:26:29.088Z,24.02
2023-01-21T19:31:34.334Z,21.25
2023-01-21T19:36:35.251Z,25.20
2023-01-21T19:41:36.074Z,27.95
2023-01-21T19:46:37.117Z,50.28
2023-01-21T19:51:37.926Z,36.05
2023-01-21T19:56:38.815Z,24.80
2023-01-21T20:01:39.623Z,17.87
2023-01-21T20:06:41.656Z,19.02
2023-01-21T20:11:43.035Z,24.85
2023-01-21T20:16:49.485Z,18.77
2023-01-21T20:22:01.338Z,19.55
2023-01-21T20:27:05.851Z,22.63
2023-01-21T20:32:09.838Z,24.10
2023-01-21T20:37:14.369Z,20.25
2023-01-21T20:42:15.109Z,24.77
2023-01-21T20:47:23.057Z,23.58
2023-01-21T20:52:33.357Z,25.17
2023-01-21T20:57:34.191Z,25.30
2023-01-21T21:02:34.963Z,27.17
2023-01-21T21:07:35.761Z,27.45
2023-01-21T21:12:37.083Z,25.25
2023-01-21T21:17:37.873Z,26.20
2023-01-21T21:22:38.642Z,21.87
2023-01-21T21:27:39.584Z,25.45
2023-01-21T21:32:40.359Z,26.20
2023-01-21T21:37:41.094Z,30.95
2023-01-21T21:43:00.315Z,31.70
2023-01-21T21:48:19.931Z,27.17
2023-01-21T21:53:20.752Z,30.60
2023-01-21T21:58:21.715Z,32.42
2023-01-21T22:03:22.442Z,25.02
2023-01-21T22:08:28.411Z,29.05
2023-01-21T22:13:31.418Z,29.35
2023-01-21T22:18:33.397Z,31.27
2023-01-21T22:23:36.295Z,36.50
2023-01-21T22:28:37.181Z,30.77
2023-01-21T22:33:38.453Z,29.65
2023-01-21T22:38:40.907Z,31.42
2023-01-21T22:43:44.423Z,28.67
2023-01-21T22:48:46.042Z,31.17
2023-01-21T22:53:47.293Z,35.22
2023-01-21T22:58:48.148Z,31.83
2023-01-21T23:03:49.300Z,33.38
2023-01-21T23:08:50.694Z,32.95
2023-01-21T23:13:54.210Z,36.45
2023-01-21T23:18:55.109Z,32.90
2023-01-21T23:23:55.914Z,33.40
2023-01-21T23:28:57.502Z,36.08
2023-01-21T23:33:58.461Z,34.08
2023-01-21T23:38:59.242Z,34.28
2023-01-21T23:44:01.372Z,36.35
2023-01-21T23:49:02.204Z,34.13
2023-01-21T23:54:03.058Z,40.35
2023-01-21T23:59:04.931Z,43.55
